Comandante Luis Piedra Buena, Argentina
Current Conditions -  °F | °C
As of 8:00 PM on Friday 19 Dec 2014 (Local Time) from SAWG Reporting Station
Scattered Clouds Scattered Clouds  
Wind Chill: 38°   Ceiling: Unl
Heat Index: 46°   Visibility: 6mi
Dew Point: 32°   Wind: 24mph
Humidity: 57%   Direction: 270°W
Pressure: 29.15"   Gusts: NA
Location:  49.98°S, 68.9°W
Report Text: SAWG 192300Z 27021KT 9999 FEW030 SCT03508/00 Q0987
Loading
Personal Weather Stations






























Interactive Weather Map New forecast layout! Learn more

10-Day Weather Forecast

Advertisements
Track Severe Weather on mobile